Time;durP1;ratioP1;P1;durP2;ratioP2;P2;SDS_P1;SDS_P2;PMS_P1;PMS_P2;Temp;Humidity;BMP_temperature;BMP_pressure;BME280_temperature;BME280_humidity;BME280_pressure;Samples;Min_cycle;Max_cycle;Signal;HPM_P1;HPM_P2
2023/07/31 00:00:31;;;;;;;;;;;15.60;99.90;;;;;;5085778;28;19928;-84
2023/07/31 00:02:56;;;;;;;;;;;15.50;99.90;;;;;;5069114;28;19927;-84
2023/07/31 00:05:22;;;;;;;;;;;15.60;99.90;;;;;;5086514;28;19924;-86
2023/07/31 00:07:47;;;;;;;;;;;15.60;99.90;;;;;;5087060;28;20351;-85
2023/07/31 00:10:13;;;;;;;;;;;15.50;99.90;;;;;;5085926;28;19985;-86
2023/07/31 00:12:39;;;;;;;;;;;15.50;99.90;;;;;;5090708;28;19943;-86
2023/07/31 00:15:06;;;;;;;;;;;15.50;99.90;;;;;;5095336;28;19955;-85
2023/07/31 00:17:31;;;;;;;;;;;15.50;99.90;;;;;;5087844;28;19928;-86
2023/07/31 00:19:57;;;;;;;;;;;15.50;99.90;;;;;;5086725;28;20056;-85
2023/07/31 00:22:22;;;;;;;;;;;15.50;99.90;;;;;;5087199;28;19931;-85
2023/07/31 00:24:48;;;;;;;;;;;15.50;99.90;;;;;;5063020;28;19924;-84
2023/07/31 00:27:13;;;;;;;;;;;15.50;99.90;;;;;;5085651;28;19930;-85
2023/07/31 00:29:39;;;;;;;;;;;15.40;99.90;;;;;;5059664;28;19928;-85
2023/07/31 00:32:05;;;;;;;;;;;15.40;99.90;;;;;;5085075;28;19931;-85
2023/07/31 00:34:30;;;;;;;;;;;15.40;99.90;;;;;;5065702;28;20255;-85
2023/07/31 00:36:56;;;;;;;;;;;15.30;99.90;;;;;;5065272;28;20275;-85
2023/07/31 00:39:21;;;;;;;;;;;15.40;99.90;;;;;;5086272;28;20384;-86
2023/07/31 00:41:47;;;;;;;;;;;15.30;99.90;;;;;;5084622;28;20032;-87
2023/07/31 00:44:13;;;;;;;;;;;15.30;99.90;;;;;;5083418;28;19934;-84
2023/07/31 00:46:38;;;;;;;;;;;15.30;99.90;;;;;;5050310;28;19924;-85
2023/07/31 00:49:04;;;;;;;;;;;15.30;99.90;;;;;;5086267;28;19924;-86
2023/07/31 00:51:30;;;;;;;;;;;15.30;99.90;;;;;;5086629;28;19934;-86
2023/07/31 00:53:56;;;;;;;;;;;15.30;99.90;;;;;;5072640;28;19928;-84
2023/07/31 00:56:22;;;;;;;;;;;15.30;99.90;;;;;;5091526;28;20007;-86
2023/07/31 00:58:47;;;;;;;;;;;15.30;99.90;;;;;;5073672;28;19928;-85
2023/07/31 01:01:13;;;;;;;;;;;15.20;99.90;;;;;;5088979;28;19925;-85
2023/07/31 01:03:39;;;;;;;;;;;15.30;99.90;;;;;;5090415;28;19924;-83
2023/07/31 01:06:16;;;;;;;;;;;15.20;99.90;;;;;;5087504;28;19931;-86
2023/07/31 01:08:51;;;;;;;;;;;15.20;99.90;;;;;;5061312;28;20393;-87
2023/07/31 01:11:27;;;;;;;;;;;15.20;99.90;;;;;;5081977;28;20201;-86
2023/07/31 01:13:53;;;;;;;;;;;15.20;99.90;;;;;;5062818;28;19924;-84
2023/07/31 01:16:18;;;;;;;;;;;15.20;99.90;;;;;;5068048;28;19969;-86
2023/07/31 01:18:44;;;;;;;;;;;15.20;99.90;;;;;;5067821;28;19938;-85
2023/07/31 01:21:28;;;;;;;;;;;15.20;99.90;;;;;;5067533;28;20039;-86
2023/07/31 01:24:17;;;;;;;;;;;15.20;99.90;;;;;;5082374;28;19974;-85
2023/07/31 01:26:46;;;;;;;;;;;15.30;99.90;;;;;;5071735;28;20436;-84
2023/07/31 01:29:12;;;;;;;;;;;15.20;99.90;;;;;;5085496;28;19934;-84
2023/07/31 01:31:39;;;;;;;;;;;15.20;99.90;;;;;;5065333;28;20034;-86
2023/07/31 01:34:05;;;;;;;;;;;15.20;99.90;;;;;;5083352;28;19940;-86
2023/07/31 01:36:31;;;;;;;;;;;15.30;99.90;;;;;;5082712;28;19925;-84
2023/07/31 01:38:58;;;;;;;;;;;15.30;99.90;;;;;;5085291;28;20385;-85
2023/07/31 01:41:23;;;;;;;;;;;15.30;99.90;;;;;;5084851;28;20007;-86
2023/07/31 01:43:49;;;;;;;;;;;15.30;99.90;;;;;;5083362;28;20358;-84
2023/07/31 01:46:14;;;;;;;;;;;15.30;99.90;;;;;;5064932;28;19928;-84
2023/07/31 01:48:40;;;;;;;;;;;15.30;99.90;;;;;;5083471;28;20402;-85
2023/07/31 01:51:05;;;;;;;;;;;15.30;99.90;;;;;;5084790;28;19928;-85
2023/07/31 01:53:31;;;;;;;;;;;15.30;99.90;;;;;;5083909;28;19935;-86
2023/07/31 01:55:57;;;;;;;;;;;15.30;99.90;;;;;;5082437;28;20443;-86
2023/07/31 01:58:22;;;;;;;;;;;15.40;99.90;;;;;;5066080;28;19928;-84
2023/07/31 02:00:48;;;;;;;;;;;15.40;99.90;;;;;;5065687;28;19977;-84
2023/07/31 02:03:13;;;;;;;;;;;15.40;99.90;;;;;;5085481;28;19939;-86
2023/07/31 02:05:48;;;;;;;;;;;15.40;99.90;;;;;;5085309;28;19924;-84
2023/07/31 02:08:14;;;;;;;;;;;15.40;99.90;;;;;;5085602;28;19928;-86
2023/07/31 02:10:40;;;;;;;;;;;15.40;99.90;;;;;;5084361;28;19932;-87
2023/07/31 02:13:06;;;;;;;;;;;15.40;99.90;;;;;;5087533;28;19928;-86
2023/07/31 02:15:31;;;;;;;;;;;15.40;99.90;;;;;;5087472;28;20006;-87
2023/07/31 02:17:57;;;;;;;;;;;15.40;99.90;;;;;;5077023;28;20413;-85
2023/07/31 02:20:22;;;;;;;;;;;15.40;99.90;;;;;;5057412;28;19930;-86
2023/07/31 02:22:48;;;;;;;;;;;15.50;99.90;;;;;;5058236;28;19971;-87
2023/07/31 02:25:14;;;;;;;;;;;15.50;99.90;;;;;;5087235;28;19935;-86
2023/07/31 02:27:39;;;;;;;;;;;15.50;99.90;;;;;;5088343;28;19928;-85
2023/07/31 02:30:05;;;;;;;;;;;15.50;99.90;;;;;;5088195;28;19928;-83
2023/07/31 02:32:31;;;;;;;;;;;15.50;99.90;;;;;;5087979;28;19924;-85
2023/07/31 02:34:56;;;;;;;;;;;15.60;99.90;;;;;;5085725;28;20287;-86
2023/07/31 02:37:23;;;;;;;;;;;15.60;99.90;;;;;;5085751;28;19935;-86
2023/07/31 02:39:48;;;;;;;;;;;15.50;99.90;;;;;;5088639;28;19969;-86
2023/07/31 02:42:14;;;;;;;;;;;15.50;99.90;;;;;;5087199;28;20378;-87
2023/07/31 02:44:39;;;;;;;;;;;15.60;99.90;;;;;;5068111;28;19932;-87
2023/07/31 02:47:05;;;;;;;;;;;15.60;99.90;;;;;;5069013;28;19935;-86
2023/07/31 02:49:31;;;;;;;;;;;15.60;99.90;;;;;;5067889;28;19969;-87
2023/07/31 02:51:56;;;;;;;;;;;15.60;99.90;;;;;;5086246;28;20293;-83
2023/07/31 02:54:22;;;;;;;;;;;15.60;99.90;;;;;;5070677;28;20031;-84
2023/07/31 02:56:48;;;;;;;;;;;15.60;99.90;;;;;;5083975;28;19982;-87
2023/07/31 02:59:13;;;;;;;;;;;15.70;99.90;;;;;;5087390;28;19924;-84
2023/07/31 03:01:39;;;;;;;;;;;15.70;99.90;;;;;;5085297;28;19924;-85
2023/07/31 03:04:04;;;;;;;;;;;15.70;99.90;;;;;;5092202;28;20389;-84
2023/07/31 03:06:30;;;;;;;;;;;15.70;99.90;;;;;;5090713;28;19932;-84
2023/07/31 03:08:55;;;;;;;;;;;15.70;99.90;;;;;;5066068;28;19940;-87
2023/07/31 03:11:21;;;;;;;;;;;15.70;99.90;;;;;;5085589;28;19928;-83
2023/07/31 03:13:47;;;;;;;;;;;15.80;99.90;;;;;;5086288;28;19980;-85
2023/07/31 03:16:12;;;;;;;;;;;15.70;99.90;;;;;;5087081;28;20334;-85
2023/07/31 03:18:38;;;;;;;;;;;15.70;99.90;;;;;;5069894;28;19928;-85
2023/07/31 03:21:04;;;;;;;;;;;15.80;99.90;;;;;;5090339;28;19924;-87
2023/07/31 03:23:30;;;;;;;;;;;15.80;99.90;;;;;;5083675;28;19924;-83
2023/07/31 03:25:56;;;;;;;;;;;15.80;99.90;;;;;;5087464;28;19934;-85
2023/07/31 03:28:22;;;;;;;;;;;15.80;99.90;;;;;;5086191;28;19986;-86
2023/07/31 03:30:47;;;;;;;;;;;15.80;99.90;;;;;;5068484;28;20647;-86
2023/07/31 03:33:13;;;;;;;;;;;15.80;99.90;;;;;;5066864;28;19932;-87
2023/07/31 03:35:38;;;;;;;;;;;15.80;99.90;;;;;;5085753;28;20359;-87
2023/07/31 03:38:04;;;;;;;;;;;15.90;99.90;;;;;;5085446;28;19923;-86
2023/07/31 03:40:29;;;;;;;;;;;15.80;99.90;;;;;;5084180;28;20057;-87
2023/07/31 03:42:55;;;;;;;;;;;15.90;99.90;;;;;;5086134;28;19932;-88
2023/07/31 03:45:21;;;;;;;;;;;15.90;99.90;;;;;;5084789;28;19927;-87
2023/07/31 03:47:46;;;;;;;;;;;15.90;99.90;;;;;;5066311;28;19934;-84
2023/07/31 03:50:12;;;;;;;;;;;15.90;99.90;;;;;;5084638;28;19924;-86
2023/07/31 03:52:37;;;;;;;;;;;15.90;99.90;;;;;;5086372;28;20448;-84
2023/07/31 03:55:03;;;;;;;;;;;16.00;99.90;;;;;;5069052;28;19932;-86
2023/07/31 03:57:29;;;;;;;;;;;15.90;99.90;;;;;;5087323;28;19931;-87
2023/07/31 03:59:54;;;;;;;;;;;16.00;99.90;;;;;;5085576;28;19928;-85
2023/07/31 04:02:20;;;;;;;;;;;16.00;99.90;;;;;;5086626;28;20277;-87
2023/07/31 04:04:45;;;;;;;;;;;16.00;99.90;;;;;;5085413;28;19972;-87
2023/07/31 04:07:11;;;;;;;;;;;16.10;99.90;;;;;;5085940;28;19928;-87
2023/07/31 04:09:37;;;;;;;;;;;16.10;99.90;;;;;;5068608;28;20340;-86
2023/07/31 04:12:02;;;;;;;;;;;16.00;99.90;;;;;;5067647;28;19931;-87
2023/07/31 04:14:28;;;;;;;;;;;16.10;99.90;;;;;;5086282;28;20014;-87
2023/07/31 04:16:53;;;;;;;;;;;16.10;99.90;;;;;;5061153;28;20387;-86
2023/07/31 04:19:19;;;;;;;;;;;16.10;99.90;;;;;;5085885;28;20110;-88
2023/07/31 04:21:44;;;;;;;;;;;16.10;99.90;;;;;;5049009;28;19928;-85
2023/07/31 04:24:10;;;;;;;;;;;16.10;99.90;;;;;;5091835;28;19981;-87
2023/07/31 04:26:35;;;;;;;;;;;16.10;99.90;;;;;;5071448;28;20337;-86
2023/07/31 04:29:01;;;;;;;;;;;16.10;99.90;;;;;;5091616;28;19928;-87
2023/07/31 04:31:27;;;;;;;;;;;16.10;99.90;;;;;;5057694;28;20011;-85
2023/07/31 04:33:52;;;;;;;;;;;16.10;99.90;;;;;;5091107;28;19969;-83
2023/07/31 04:36:18;;;;;;;;;;;16.20;99.90;;;;;;5073127;28;19974;-86
2023/07/31 04:38:43;;;;;;;;;;;16.20;99.90;;;;;;5092197;28;19924;-86
2023/07/31 04:41:09;;;;;;;;;;;16.20;99.90;;;;;;5073728;28;19932;-86
2023/07/31 04:43:34;;;;;;;;;;;16.20;99.90;;;;;;5087646;28;20772;-86
2023/07/31 04:46:00;;;;;;;;;;;16.20;99.90;;;;;;5091993;28;19931;-85
2023/07/31 04:48:26;;;;;;;;;;;16.20;99.90;;;;;;5090568;28;19939;-85
2023/07/31 04:50:51;;;;;;;;;;;16.20;99.90;;;;;;5089322;28;19931;-86
2023/07/31 04:53:17;;;;;;;;;;;16.20;99.90;;;;;;5070336;28;19928;-85
2023/07/31 04:55:42;;;;;;;;;;;16.30;99.90;;;;;;5087944;28;19935;-85
2023/07/31 04:58:08;;;;;;;;;;;16.30;99.90;;;;;;5085633;28;19927;-86
2023/07/31 05:00:33;;;;;;;;;;;16.30;99.90;;;;;;5085709;28;20016;-86
2023/07/31 05:02:59;;;;;;;;;;;16.30;99.90;;;;;;5087710;28;20405;-86
2023/07/31 05:05:24;;;;;;;;;;;16.30;99.90;;;;;;5084785;28;20043;-86
2023/07/31 05:07:50;;;;;;;;;;;16.30;99.90;;;;;;5088751;28;19928;-85
2023/07/31 05:10:15;;;;;;;;;;;16.30;99.90;;;;;;5085099;28;19928;-85
2023/07/31 05:12:41;;;;;;;;;;;16.30;99.90;;;;;;5063990;28;19967;-86
2023/07/31 05:15:07;;;;;;;;;;;16.30;99.90;;;;;;5062385;28;19935;-86
2023/07/31 05:17:32;;;;;;;;;;;16.40;99.90;;;;;;5067885;28;20009;-87
2023/07/31 05:19:58;;;;;;;;;;;16.40;99.90;;;;;;5083375;28;20022;-87
2023/07/31 05:22:23;;;;;;;;;;;16.40;99.90;;;;;;5085140;28;19923;-86
2023/07/31 05:24:49;;;;;;;;;;;16.40;99.90;;;;;;5083376;28;19943;-86
2023/07/31 05:27:18;;;;;;;;;;;16.50;99.90;;;;;;5069874;28;19931;-86
2023/07/31 05:29:44;;;;;;;;;;;16.50;99.90;;;;;;5084499;28;19936;-86
2023/07/31 05:32:09;;;;;;;;;;;16.50;99.90;;;;;;5083723;28;19928;-86
2023/07/31 05:34:35;;;;;;;;;;;16.50;99.90;;;;;;5084306;28;19951;-86
2023/07/31 05:37:00;;;;;;;;;;;16.50;99.90;;;;;;5084174;28;19935;-85
2023/07/31 05:39:26;;;;;;;;;;;16.50;99.90;;;;;;5060407;28;19928;-86
2023/07/31 05:41:51;;;;;;;;;;;16.50;99.90;;;;;;5083847;28;20046;-90
2023/07/31 05:44:17;;;;;;;;;;;16.50;99.90;;;;;;5052487;28;19935;-86
2023/07/31 05:46:42;;;;;;;;;;;16.50;99.90;;;;;;5083764;28;19966;-87
2023/07/31 05:49:08;;;;;;;;;;;16.50;99.90;;;;;;5068442;28;20378;-87
2023/07/31 05:51:34;;;;;;;;;;;16.50;99.90;;;;;;5056860;28;20415;-87
2023/07/31 05:53:59;;;;;;;;;;;16.50;99.90;;;;;;5088319;28;19928;-87
2023/07/31 05:56:27;;;;;;;;;;;16.50;99.90;;;;;;5086081;28;20010;-86
2023/07/31 05:58:52;;;;;;;;;;;16.50;99.90;;;;;;5090606;28;19932;-85
2023/07/31 06:01:18;;;;;;;;;;;16.50;99.90;;;;;;5088970;28;19931;-87
2023/07/31 06:03:43;;;;;;;;;;;16.60;99.90;;;;;;5093739;28;19986;-85
2023/07/31 06:06:09;;;;;;;;;;;16.60;99.90;;;;;;5091241;28;19928;-85
2023/07/31 06:08:35;;;;;;;;;;;16.60;99.90;;;;;;5088366;28;19924;-84
2023/07/31 06:11:00;;;;;;;;;;;16.60;99.90;;;;;;5072581;28;20407;-84
2023/07/31 06:13:26;;;;;;;;;;;16.60;99.90;;;;;;5096959;28;19925;-84
2023/07/31 06:15:52;;;;;;;;;;;16.70;99.90;;;;;;5097308;28;19991;-86
2023/07/31 06:18:17;;;;;;;;;;;16.70;99.90;;;;;;5095763;28;19928;-85
2023/07/31 06:20:43;;;;;;;;;;;16.70;99.90;;;;;;5060634;28;19952;-85
2023/07/31 06:23:08;;;;;;;;;;;16.70;99.90;;;;;;5092250;28;19924;-85
2023/07/31 06:25:34;;;;;;;;;;;16.70;99.90;;;;;;5048457;28;20032;-84
2023/07/31 06:27:59;;;;;;;;;;;16.70;99.90;;;;;;5070098;28;19982;-87
2023/07/31 06:30:25;;;;;;;;;;;16.70;99.90;;;;;;5087265;28;19924;-84
2023/07/31 06:32:50;;;;;;;;;;;16.70;99.90;;;;;;5089079;28;20409;-85
2023/07/31 06:35:16;;;;;;;;;;;16.70;99.90;;;;;;5087346;28;20437;-86
2023/07/31 06:37:44;;;;;;;;;;;16.70;99.90;;;;;;5059691;28;19924;-84
2023/07/31 06:40:09;;;;;;;;;;;16.70;99.90;;;;;;5071464;28;19990;-84
2023/07/31 06:42:35;;;;;;;;;;;16.70;99.90;;;;;;5085633;28;20395;-85
2023/07/31 06:45:01;;;;;;;;;;;16.70;99.90;;;;;;5070349;28;20382;-84
2023/07/31 06:47:27;;;;;;;;;;;16.70;99.90;;;;;;5086995;28;19982;-83
2023/07/31 06:49:52;;;;;;;;;;;16.70;99.90;;;;;;5061978;28;19971;-86
2023/07/31 06:52:19;;;;;;;;;;;16.70;99.90;;;;;;5071765;28;19928;-86
2023/07/31 06:54:44;;;;;;;;;;;16.70;99.90;;;;;;5089790;28;20362;-86
2023/07/31 06:57:10;;;;;;;;;;;16.70;99.90;;;;;;5089376;28;19930;-86
2023/07/31 06:59:35;;;;;;;;;;;16.70;99.90;;;;;;5053911;28;19923;-86
2023/07/31 07:02:01;;;;;;;;;;;16.70;99.90;;;;;;5083441;28;19928;-86
2023/07/31 07:04:26;;;;;;;;;;;16.70;99.90;;;;;;5087893;28;20327;-86
2023/07/31 07:06:52;;;;;;;;;;;16.70;99.90;;;;;;5063126;28;19924;-87
2023/07/31 07:09:18;;;;;;;;;;;16.70;99.90;;;;;;5053831;28;19971;-87
2023/07/31 07:11:43;;;;;;;;;;;16.70;99.90;;;;;;5088176;28;19932;-84
2023/07/31 07:14:10;;;;;;;;;;;16.80;99.90;;;;;;5095725;28;19970;-86
2023/07/31 07:16:35;;;;;;;;;;;16.80;99.90;;;;;;5075646;28;19935;-86
2023/07/31 07:19:01;;;;;;;;;;;16.90;99.90;;;;;;5073271;28;19928;-86
2023/07/31 07:21:26;;;;;;;;;;;16.90;99.90;;;;;;5071222;28;19931;-86
2023/07/31 07:23:52;;;;;;;;;;;17.00;99.90;;;;;;5073128;28;19924;-89
2023/07/31 07:26:17;;;;;;;;;;;16.90;99.90;;;;;;5092638;28;19936;-86
2023/07/31 07:28:43;;;;;;;;;;;17.00;99.90;;;;;;5093458;28;19924;-85
2023/07/31 07:31:08;;;;;;;;;;;16.90;99.90;;;;;;5090486;28;20385;-86
2023/07/31 07:33:34;;;;;;;;;;;17.00;99.90;;;;;;5093349;28;19976;-85
2023/07/31 07:36:00;;;;;;;;;;;17.00;99.90;;;;;;5091550;28;19928;-86
2023/07/31 07:38:26;;;;;;;;;;;17.10;99.90;;;;;;5086704;28;19935;-87
2023/07/31 07:40:53;;;;;;;;;;;17.10;99.90;;;;;;5084955;28;19924;-86
2023/07/31 07:43:18;;;;;;;;;;;17.00;99.90;;;;;;5068854;28;20011;-86
2023/07/31 07:45:44;;;;;;;;;;;17.00;99.90;;;;;;5086216;28;20076;-86
2023/07/31 07:48:10;;;;;;;;;;;16.90;99.90;;;;;;5067207;28;19932;-85
2023/07/31 07:50:36;;;;;;;;;;;16.90;99.90;;;;;;5085029;28;19924;-86
2023/07/31 07:53:02;;;;;;;;;;;16.90;99.90;;;;;;5065847;28;20391;-85
2023/07/31 07:55:28;;;;;;;;;;;16.90;99.90;;;;;;5067401;28;19931;-88
2023/07/31 07:57:53;;;;;;;;;;;16.90;99.90;;;;;;5083233;28;20022;-87
2023/07/31 08:00:19;;;;;;;;;;;16.90;99.90;;;;;;5064412;28;19928;-85
2023/07/31 08:02:44;;;;;;;;;;;16.90;99.90;;;;;;5083150;28;19946;-85
2023/07/31 08:05:10;;;;;;;;;;;16.90;99.90;;;;;;5066684;28;19931;-84
2023/07/31 08:07:35;;;;;;;;;;;16.90;99.90;;;;;;5069474;28;20014;-85
2023/07/31 08:10:01;;;;;;;;;;;16.90;99.90;;;;;;5086707;28;19947;-85
2023/07/31 08:12:27;;;;;;;;;;;17.00;99.90;;;;;;5084676;28;20685;-85
2023/07/31 08:14:53;;;;;;;;;;;17.10;99.90;;;;;;5061937;28;19931;-87
2023/07/31 08:17:18;;;;;;;;;;;17.10;99.90;;;;;;5063786;28;19976;-85
2023/07/31 08:19:44;;;;;;;;;;;17.10;99.90;;;;;;5064740;28;19978;-85
2023/07/31 08:22:10;;;;;;;;;;;17.20;99.90;;;;;;5063210;28;20610;-85
2023/07/31 08:24:35;;;;;;;;;;;17.10;99.90;;;;;;5082505;28;19932;-85
2023/07/31 08:27:01;;;;;;;;;;;17.20;99.90;;;;;;5086115;28;19947;-85
2023/07/31 08:29:27;;;;;;;;;;;17.30;99.90;;;;;;5080854;28;19928;-85
2023/07/31 08:31:52;;;;;;;;;;;17.30;99.90;;;;;;5084108;28;19935;-87
2023/07/31 08:34:18;;;;;;;;;;;17.30;99.90;;;;;;5084142;28;20402;-86
2023/07/31 08:36:43;;;;;;;;;;;17.30;99.90;;;;;;5083061;28;19928;-86
2023/07/31 08:39:09;;;;;;;;;;;17.40;99.90;;;;;;5084545;28;19924;-85
2023/07/31 08:41:41;;;;;;;;;;;17.40;99.90;;;;;;5080972;28;19924;-84
2023/07/31 08:44:07;;;;;;;;;;;17.50;99.90;;;;;;5084339;28;19935;-85
2023/07/31 08:46:32;;;;;;;;;;;17.50;99.90;;;;;;5082480;28;19924;-83
2023/07/31 08:48:58;;;;;;;;;;;17.50;99.90;;;;;;5084246;28;19946;-84
2023/07/31 08:51:24;;;;;;;;;;;17.60;99.90;;;;;;5077859;28;19924;-85
2023/07/31 08:53:50;;;;;;;;;;;17.60;99.90;;;;;;5067535;28;19932;-88
2023/07/31 08:56:17;;;;;;;;;;;17.60;99.90;;;;;;5083230;28;19997;-87
2023/07/31 08:58:43;;;;;;;;;;;17.60;99.90;;;;;;5068851;28;19924;-87
2023/07/31 09:01:08;;;;;;;;;;;17.70;99.90;;;;;;5081581;28;19928;-87
2023/07/31 09:03:36;;;;;;;;;;;17.70;99.90;;;;;;5084305;28;19982;-86
2023/07/31 09:06:03;;;;;;;;;;;17.70;99.90;;;;;;5062491;28;19935;-87
2023/07/31 09:08:30;;;;;;;;;;;17.70;99.90;;;;;;5085086;28;20287;-87
2023/07/31 09:10:59;;;;;;;;;;;17.70;99.90;;;;;;5082045;28;20382;-89
2023/07/31 09:13:24;;;;;;;;;;;17.70;99.90;;;;;;5062564;28;20042;-87
2023/07/31 09:15:50;;;;;;;;;;;17.70;99.90;;;;;;5065095;28;20014;-87
2023/07/31 09:18:19;;;;;;;;;;;17.70;99.90;;;;;;5080830;28;19955;-87
2023/07/31 09:20:44;;;;;;;;;;;17.70;99.90;;;;;;5084263;28;19930;-87
2023/07/31 09:23:11;;;;;;;;;;;17.70;99.90;;;;;;5064356;28;19928;-87
2023/07/31 09:25:37;;;;;;;;;;;17.70;99.90;;;;;;5067559;28;19968;-87
2023/07/31 09:28:04;;;;;;;;;;;17.80;99.90;;;;;;5064454;28;20379;-88
2023/07/31 09:30:30;;;;;;;;;;;17.90;99.90;;;;;;5085503;28;19924;-86
2023/07/31 09:33:03;;;;;;;;;;;18.00;99.90;;;;;;5081172;28;20367;-87
2023/07/31 09:35:30;;;;;;;;;;;18.10;99.90;;;;;;5070964;28;19988;-88
2023/07/31 09:37:57;;;;;;;;;;;18.10;99.90;;;;;;5084267;28;19931;-86
2023/07/31 09:40:26;;;;;;;;;;;18.20;99.90;;;;;;5084591;28;19928;-88
2023/07/31 09:42:51;;;;;;;;;;;18.10;99.90;;;;;;5084274;28;19950;-87
2023/07/31 09:45:18;;;;;;;;;;;18.20;99.90;;;;;;5053725;28;20387;-87
2023/07/31 09:47:48;;;;;;;;;;;18.20;99.90;;;;;;5082827;28;20065;-86
2023/07/31 09:50:14;;;;;;;;;;;18.10;99.90;;;;;;5081164;28;20268;-85
2023/07/31 09:52:40;;;;;;;;;;;18.20;99.90;;;;;;5081681;28;20508;-85
2023/07/31 09:55:05;;;;;;;;;;;18.20;99.90;;;;;;5084298;28;20011;-87
2023/07/31 09:57:31;;;;;;;;;;;18.30;99.90;;;;;;5084081;28;19932;-87
2023/07/31 09:59:57;;;;;;;;;;;18.40;99.90;;;;;;5067801;28;19975;-85
2023/07/31 10:02:23;;;;;;;;;;;18.40;99.90;;;;;;5081231;28;19931;-87
2023/07/31 10:04:50;;;;;;;;;;;18.50;99.90;;;;;;5084302;28;19924;-89
2023/07/31 10:07:17;;;;;;;;;;;18.50;99.90;;;;;;5066035;28;19928;-89
2023/07/31 10:09:42;;;;;;;;;;;18.60;99.90;;;;;;5048693;28;19931;-87
2023/07/31 10:12:10;;;;;;;;;;;18.70;99.90;;;;;;5060411;28;19924;-88
2023/07/31 10:14:36;;;;;;;;;;;18.80;99.90;;;;;;5085644;28;20032;-89
2023/07/31 10:17:02;;;;;;;;;;;18.80;99.90;;;;;;5066197;28;19932;-89
2023/07/31 10:19:28;;;;;;;;;;;18.80;99.90;;;;;;5041611;28;19978;-89
2023/07/31 10:21:56;;;;;;;;;;;18.70;99.90;;;;;;5088226;28;19932;-85
2023/07/31 10:24:23;;;;;;;;;;;18.80;99.90;;;;;;5069471;28;19924;-88
2023/07/31 10:26:50;;;;;;;;;;;18.80;99.90;;;;;;5070332;28;19924;-87
2023/07/31 10:29:17;;;;;;;;;;;18.80;99.90;;;;;;5089199;28;19931;-90
2023/07/31 10:31:43;;;;;;;;;;;18.80;99.90;;;;;;5073094;28;20019;-87
2023/07/31 10:34:09;;;;;;;;;;;18.70;99.90;;;;;;5074047;28;20006;-89
2023/07/31 10:36:34;;;;;;;;;;;18.80;99.90;;;;;;5058586;28;19981;-87
2023/07/31 10:39:04;;;;;;;;;;;18.90;99.90;;;;;;5071586;28;20478;-89
2023/07/31 10:41:30;;;;;;;;;;;19.00;99.90;;;;;;5094067;28;19924;-87
2023/07/31 10:44:00;;;;;;;;;;;19.10;99.90;;;;;;5088204;28;19924;-86
2023/07/31 10:46:27;;;;;;;;;;;19.10;99.90;;;;;;5071103;28;19924;-87
2023/07/31 10:49:02;;;;;;;;;;;19.20;99.90;;;;;;5085454;28;19931;-87
2023/07/31 10:51:35;;;;;;;;;;;19.20;99.90;;;;;;5067829;28;20374;-86
2023/07/31 10:54:11;;;;;;;;;;;19.30;99.90;;;;;;5067840;28;19956;-87
2023/07/31 10:56:39;;;;;;;;;;;19.30;99.90;;;;;;5069623;28;20634;-87
2023/07/31 10:59:06;;;;;;;;;;;19.30;99.90;;;;;;5065248;28;20264;-86
2023/07/31 11:01:51;;;;;;;;;;;19.20;99.90;;;;;;5082774;28;20024;-87
2023/07/31 11:04:21;;;;;;;;;;;19.20;99.90;;;;;;5084603;28;19932;-86
2023/07/31 11:06:55;;;;;;;;;;;19.20;99.90;;;;;;5084535;28;20016;-87
2023/07/31 11:09:20;;;;;;;;;;;19.10;99.90;;;;;;5070409;28;20416;-87
2023/07/31 11:11:46;;;;;;;;;;;19.10;99.90;;;;;;5071975;28;19924;-87
2023/07/31 11:14:12;;;;;;;;;;;19.10;99.90;;;;;;5074574;28;19924;-86
2023/07/31 11:16:37;;;;;;;;;;;19.10;99.90;;;;;;5089486;28;19964;-87
2023/07/31 11:19:08;;;;;;;;;;;19.10;99.90;;;;;;5092543;28;20022;-88
2023/07/31 11:21:33;;;;;;;;;;;19.00;99.90;;;;;;5084652;28;20061;-86
2023/07/31 11:23:59;;;;;;;;;;;19.10;99.90;;;;;;5061799;28;19971;-86
2023/07/31 11:26:25;;;;;;;;;;;19.10;99.90;;;;;;5085545;28;19932;-84
2023/07/31 11:28:51;;;;;;;;;;;19.30;99.90;;;;;;5069721;28;19928;-86
2023/07/31 11:31:17;;;;;;;;;;;19.40;99.90;;;;;;5067046;28;19928;-88
2023/07/31 11:33:43;;;;;;;;;;;19.50;99.90;;;;;;5067329;28;19924;-87
2023/07/31 11:36:16;;;;;;;;;;;19.50;99.90;;;;;;5064801;28;20382;-88
2023/07/31 11:38:41;;;;;;;;;;;19.50;99.90;;;;;;5086136;28;19928;-87
2023/07/31 11:41:07;;;;;;;;;;;19.50;99.90;;;;;;5092781;28;19935;-87
2023/07/31 11:43:33;;;;;;;;;;;19.60;99.90;;;;;;5090149;28;19971;-87
2023/07/31 11:45:59;;;;;;;;;;;19.80;99.90;;;;;;5090641;28;19931;-88
2023/07/31 11:48:29;;;;;;;;;;;20.10;99.90;;;;;;5078413;28;19974;-88
2023/07/31 11:50:58;;;;;;;;;;;20.20;99.90;;;;;;5074754;28;19924;-88
2023/07/31 11:53:27;;;;;;;;;;;20.30;99.90;;;;;;5070801;28;19925;-88
2023/07/31 11:55:53;;;;;;;;;;;20.40;99.90;;;;;;5072356;28;19931;-85
2023/07/31 11:58:19;;;;;;;;;;;20.50;99.90;;;;;;5069819;28;19928;-87
2023/07/31 12:00:45;;;;;;;;;;;20.40;99.90;;;;;;5058654;28;19925;-87
2023/07/31 12:03:11;;;;;;;;;;;20.30;99.90;;;;;;5072389;28;19932;-88
2023/07/31 12:05:37;;;;;;;;;;;20.20;99.90;;;;;;5070440;28;19931;-87
2023/07/31 12:08:08;;;;;;;;;;;20.10;99.90;;;;;;5070121;28;19929;-89
2023/07/31 12:10:33;;;;;;;;;;;20.20;99.90;;;;;;5072109;28;19966;-86
2023/07/31 12:13:00;;;;;;;;;;;20.20;99.90;;;;;;5072221;28;19935;-88
2023/07/31 12:15:31;;;;;;;;;;;20.20;99.90;;;;;;5070914;28;19932;-87
2023/07/31 12:17:56;;;;;;;;;;;20.20;99.90;;;;;;5068783;28;19925;-87
2023/07/31 12:20:22;;;;;;;;;;;20.20;99.90;;;;;;5071619;28;19931;-86
2023/07/31 12:22:48;;;;;;;;;;;20.10;99.90;;;;;;5071971;28;19940;-87
2023/07/31 12:25:16;;;;;;;;;;;20.00;99.90;;;;;;5070635;28;19924;-88
2023/07/31 12:27:45;;;;;;;;;;;19.80;99.90;;;;;;5071451;28;20387;-87
2023/07/31 12:30:27;;;;;;;;;;;19.80;99.90;;;;;;5074126;28;19982;-88
2023/07/31 12:32:52;;;;;;;;;;;19.80;99.90;;;;;;5077408;28;19924;-88
2023/07/31 12:35:18;;;;;;;;;;;19.80;99.90;;;;;;5075077;28;19924;-88
2023/07/31 12:37:43;;;;;;;;;;;19.90;99.90;;;;;;5074578;28;19924;-87
2023/07/31 12:40:09;;;;;;;;;;;20.10;99.90;;;;;;5071703;28;19925;-87
2023/07/31 12:42:35;;;;;;;;;;;20.40;99.90;;;;;;5072190;28;19947;-88
2023/07/31 12:45:00;;;;;;;;;;;20.60;99.90;;;;;;5070619;28;19928;-88
2023/07/31 12:47:26;;;;;;;;;;;20.80;99.90;;;;;;5071222;28;20026;-88
2023/07/31 12:49:51;;;;;;;;;;;20.90;99.90;;;;;;5067839;28;20053;-86
2023/07/31 12:52:17;;;;;;;;;;;20.80;99.90;;;;;;5078333;28;19980;-86
2023/07/31 12:54:43;;;;;;;;;;;20.80;99.90;;;;;;5092157;28;19924;-88
2023/07/31 12:57:08;;;;;;;;;;;20.80;99.90;;;;;;5091380;28;20371;-86
2023/07/31 12:59:34;;;;;;;;;;;20.90;99.90;;;;;;5072629;28;19990;-87
2023/07/31 13:02:00;;;;;;;;;;;20.80;99.90;;;;;;5091355;28;19931;-87
2023/07/31 13:04:25;;;;;;;;;;;20.90;99.90;;;;;;5073730;28;20451;-87
2023/07/31 13:06:51;;;;;;;;;;;20.90;99.90;;;;;;5090785;28;19924;-87
2023/07/31 13:09:17;;;;;;;;;;;20.80;99.90;;;;;;5091232;28;19973;-86
2023/07/31 13:11:43;;;;;;;;;;;20.70;99.90;;;;;;5054382;28;19950;-87
2023/07/31 13:14:08;;;;;;;;;;;20.50;99.90;;;;;;5088569;28;20367;-88
2023/07/31 13:16:34;;;;;;;;;;;20.40;99.90;;;;;;5090161;28;19924;-88
2023/07/31 13:18:59;;;;;;;;;;;20.40;99.90;;;;;;5073413;28;19924;-86
2023/07/31 13:21:25;;;;;;;;;;;20.50;99.90;;;;;;5071777;28;19928;-86
2023/07/31 13:23:51;;;;;;;;;;;20.60;99.90;;;;;;5073261;28;19930;-86
2023/07/31 13:26:16;;;;;;;;;;;20.80;99.90;;;;;;5091029;28;19924;-87
2023/07/31 13:28:42;;;;;;;;;;;20.90;99.90;;;;;;5090828;28;19924;-87
2023/07/31 13:31:07;;;;;;;;;;;21.00;99.90;;;;;;5065448;28;19932;-86
2023/07/31 13:33:33;;;;;;;;;;;21.00;99.90;;;;;;5052075;28;19932;-88
2023/07/31 13:35:58;;;;;;;;;;;21.00;99.90;;;;;;5068133;28;20007;-87
2023/07/31 13:38:24;;;;;;;;;;;21.00;99.90;;;;;;5054445;28;19924;-85
2023/07/31 13:40:49;;;;;;;;;;;21.00;99.90;;;;;;5055101;28;20302;-85
2023/07/31 13:43:15;;;;;;;;;;;21.00;99.90;;;;;;5085956;28;19924;-84
2023/07/31 13:45:41;;;;;;;;;;;20.90;99.90;;;;;;5089099;28;19935;-86
2023/07/31 13:48:06;;;;;;;;;;;20.90;99.90;;;;;;5070055;28;19928;-85
2023/07/31 13:50:32;;;;;;;;;;;20.80;99.90;;;;;;5076057;28;20374;-86
2023/07/31 13:52:57;;;;;;;;;;;20.70;99.90;;;;;;5072170;28;19987;-86
2023/07/31 13:55:23;;;;;;;;;;;20.60;99.90;;;;;;5071297;28;20378;-87
2023/07/31 13:57:48;;;;;;;;;;;20.50;99.90;;;;;;5090066;28;19971;-85
2023/07/31 14:00:14;;;;;;;;;;;20.40;99.90;;;;;;5088600;28;20002;-84
2023/07/31 14:02:40;;;;;;;;;;;20.40;99.90;;;;;;5089530;28;19940;-84
2023/07/31 14:05:05;;;;;;;;;;;20.40;99.90;;;;;;5089910;28;19932;-85
2023/07/31 14:07:32;;;;;;;;;;;20.40;99.90;;;;;;5076588;28;19929;-86
2023/07/31 14:09:57;;;;;;;;;;;20.50;99.90;;;;;;5077159;28;19929;-86